createdAt,value
2019-01-21T00:05:38.412Z,98023.63
2019-01-21T00:15:40.146Z,98025.92
2019-01-21T00:25:41.749Z,98028.16
2019-01-21T00:35:43.710Z,98035.94
2019-01-21T00:45:45.304Z,98043.23
2019-01-21T00:55:46.893Z,98051.50
2019-01-21T01:05:48.329Z,98060.16
2019-01-21T01:15:49.758Z,98064.11
2019-01-21T01:25:51.246Z,98068.53
2019-01-21T01:35:52.731Z,98074.72
2019-01-21T01:45:54.202Z,98065.62
2019-01-21T01:55:55.670Z,98069.61
2019-01-21T02:05:57.109Z,98070.55
2019-01-21T02:15:58.576Z,98080.95
2019-01-21T02:26:03.272Z,98085.45
2019-01-21T02:36:16.157Z,98080.09
2019-01-21T02:46:41.353Z,98079.23
2019-01-21T02:56:51.555Z,98088.53
2019-01-21T03:07:25.873Z,98088.86
2019-01-21T03:17:54.023Z,98093.13
2019-01-21T03:28:40.858Z,98096.66
2019-01-21T03:39:13.694Z,98105.56
2019-01-21T03:49:26.308Z,98105.09
2019-01-21T03:59:58.091Z,98092.88
2019-01-21T04:10:34.289Z,98104.51
2019-01-21T04:21:08.922Z,98109.98
2019-01-21T04:31:40.345Z,98124.97
2019-01-21T04:41:53.305Z,98127.95
2019-01-21T04:52:47.528Z,98131.08
2019-01-21T05:03:12.269Z,98140.31
2019-01-21T05:13:55.461Z,98145.23
2019-01-21T05:24:14.509Z,98156.92
2019-01-21T05:34:51.692Z,98159.41
2019-01-21T05:45:24.673Z,98158.48
2019-01-21T05:55:37.590Z,98165.20
2019-01-21T06:06:11.611Z,98165.05
2019-01-21T06:16:27.709Z,98169.81
2019-01-21T06:26:40.816Z,98177.52
2019-01-21T06:37:20.185Z,98183.03
2019-01-21T06:48:17.812Z,98188.08
2019-01-21T06:58:53.574Z,98204.00
2019-01-21T07:09:32.677Z,98208.16
2019-01-21T07:19:54.868Z,98220.49
2019-01-21T07:30:07.614Z,98232.14
2019-01-21T07:40:35.933Z,98248.12
2019-01-21T07:50:58.146Z,98251.11
2019-01-21T08:01:08.272Z,98251.88
2019-01-21T08:11:58.930Z,98254.33
2019-01-21T08:22:43.168Z,98248.12
2019-01-21T08:32:56.117Z,98253.66
2019-01-21T08:43:18.652Z,98248.66
2019-01-21T08:53:42.425Z,98258.13
2019-01-21T09:04:07.678Z,98267.63
2019-01-21T09:14:31.516Z,98276.56
2019-01-21T09:24:56.100Z,98294.56
2019-01-21T09:35:24.095Z,98296.66
2019-01-21T09:45:50.858Z,98294.41
2019-01-21T09:55:53.853Z,98286.05
2019-01-21T10:06:01.060Z,98288.20
2019-01-21T10:16:29.139Z,98271.13
2019-01-21T10:26:55.930Z,98264.45
2019-01-21T10:37:25.919Z,98263.64
2019-01-21T10:47:35.829Z,98255.23
2019-01-21T10:57:48.421Z,98243.62
2019-01-21T11:08:22.117Z,98228.86
2019-01-21T11:18:41.381Z,98224.55
2019-01-21T11:29:00.538Z,98221.53
2019-01-21T11:39:13.757Z,98221.09
2019-01-21T11:49:32.539Z,98207.06
2019-01-21T11:59:51.454Z,98202.36
2019-01-21T12:10:27.570Z,98191.99
2019-01-21T12:21:01.407Z,98185.12
2019-01-21T12:31:45.455Z,98175.66
2019-01-21T12:42:07.602Z,98175.14
2019-01-21T12:52:26.828Z,98162.11
2019-01-21T13:02:46.276Z,98149.60
2019-01-21T13:13:19.729Z,98143.70
2019-01-21T13:23:29.769Z,98126.33
2019-01-21T13:33:48.938Z,98133.53
2019-01-21T13:44:14.349Z,98128.28
2019-01-21T13:54:59.190Z,98118.55
2019-01-21T14:05:31.023Z,98101.88
2019-01-21T14:15:44.613Z,98086.89
2019-01-21T14:26:16.292Z,98090.88
2019-01-21T14:36:50.236Z,98081.38
2019-01-21T14:47:12.515Z,98068.49
2019-01-21T14:57:25.754Z,98067.82
2019-01-21T15:07:32.899Z,98059.10
2019-01-21T15:17:55.118Z,98057.20
2019-01-21T15:28:17.263Z,98055.52
2019-01-21T15:38:36.536Z,98061.19
2019-01-21T15:48:49.420Z,98054.67
2019-01-21T15:59:28.117Z,98059.60
2019-01-21T16:09:49.891Z,98056.69
2019-01-21T16:19:51.734Z,98058.17
2019-01-21T16:30:07.454Z,98057.27
2019-01-21T16:40:40.558Z,98055.94
2019-01-21T16:50:42.000Z,98039.39
2019-01-21T17:00:43.585Z,98043.76
2019-01-21T17:10:45.119Z,98042.55
2019-01-21T17:20:46.550Z,98056.31
2019-01-21T17:30:48.031Z,98048.19
2019-01-21T17:40:49.506Z,98039.52
2019-01-21T17:50:51.051Z,98032.50
2019-01-21T18:00:53.642Z,98039.90
2019-01-21T18:10:56.192Z,98036.95
2019-01-21T18:20:57.689Z,98040.74
2019-01-21T18:30:59.221Z,98019.52
2019-01-21T18:41:00.997Z,98023.73
2019-01-21T18:51:02.882Z,98021.00
2019-01-21T19:01:04.313Z,98007.84
2019-01-21T19:11:07.306Z,98015.45
2019-01-21T19:21:08.841Z,98004.87
2019-01-21T19:31:10.487Z,98001.34
2019-01-21T19:41:12.118Z,98002.94
2019-01-21T19:51:13.668Z,98004.74
2019-01-21T20:01:15.214Z,98010.41
2019-01-21T20:11:16.801Z,97996.20
2019-01-21T20:21:18.383Z,97988.48
2019-01-21T20:31:20.107Z,97984.34
2019-01-21T20:41:21.950Z,97974.37
2019-01-21T20:51:23.638Z,97967.64
2019-01-21T21:01:25.173Z,97957.41
2019-01-21T21:11:27.814Z,97945.43
2019-01-21T21:21:29.347Z,97946.62
2019-01-21T21:31:30.849Z,97942.69
2019-01-21T21:41:32.289Z,97941.03
2019-01-21T21:51:34.038Z,97949.61
2019-01-21T22:01:40.053Z,97949.52
2019-01-21T22:11:40.063Z,97949.21
2019-01-21T22:21:42.664Z,97952.64
2019-01-21T22:31:44.540Z,97943.31
2019-01-21T22:41:45.981Z,97943.25
2019-01-21T22:51:47.450Z,97937.20
2019-01-21T23:01:49.097Z,97932.28
2019-01-21T23:11:50.658Z,97930.15
2019-01-21T23:21:52.184Z,97921.19
2019-01-21T23:31:53.712Z,97908.39
2019-01-21T23:41:55.146Z,97895.72
2019-01-21T23:51:56.670Z,97891.42
